createdAt,value
2019-02-22T00:00:27.654Z,25.33
2019-02-22T00:02:56.222Z,25.67
2019-02-22T00:05:24.815Z,28.27
2019-02-22T00:07:53.370Z,30.97
2019-02-22T00:10:21.961Z,28.90
2019-02-22T00:12:50.518Z,30.13
2019-02-22T00:15:19.181Z,25.47
2019-02-22T00:17:47.736Z,29.13
2019-02-22T00:20:16.328Z,24.77
2019-02-22T00:22:44.882Z,28.70
2019-02-22T00:25:13.442Z,26.57
2019-02-22T00:27:41.942Z,35.53
2019-02-22T00:30:10.640Z,28.73
2019-02-22T00:32:39.227Z,32.20
2019-02-22T00:35:07.960Z,32.43
2019-02-22T00:37:36.510Z,28.60
2019-02-22T00:42:52.193Z,28.00
2019-02-22T00:45:20.733Z,27.60
2019-02-22T00:47:49.310Z,29.53
2019-02-22T00:50:17.792Z,28.90
2019-02-22T00:52:46.370Z,28.60
2019-02-22T00:55:14.871Z,29.37
2019-02-22T00:57:43.450Z,28.70
2019-02-22T01:00:12.146Z,31.50
2019-02-22T01:02:40.730Z,25.63
2019-02-22T01:05:09.354Z,27.63
2019-02-22T01:07:37.938Z,26.70
2019-02-22T01:10:06.772Z,24.57
2019-02-22T01:12:35.347Z,26.77
2019-02-22T01:15:04.518Z,26.30
2019-02-22T01:17:33.142Z,32.20
2019-02-22T01:20:01.674Z,30.17
2019-02-22T01:22:30.246Z,27.43
2019-02-22T01:24:58.811Z,31.43
2019-02-22T01:27:27.372Z,29.30
2019-02-22T01:29:55.947Z,28.07
2019-02-22T01:32:24.498Z,30.73
2019-02-22T01:34:53.083Z,26.57
2019-02-22T01:37:21.634Z,26.53
2019-02-22T01:39:50.209Z,27.73
2019-02-22T01:42:18.686Z,30.80
2019-02-22T01:44:47.263Z,29.47
2019-02-22T01:47:15.830Z,28.50
2019-02-22T01:49:44.406Z,28.97
2019-02-22T01:52:12.954Z,30.33
2019-02-22T01:54:44.218Z,28.23
2019-02-22T01:57:12.776Z,25.47
2019-02-22T01:59:41.361Z,25.50
2019-02-22T02:02:09.914Z,24.30
2019-02-22T02:04:38.514Z,30.57
2019-02-22T02:07:07.148Z,29.53
2019-02-22T02:09:35.918Z,27.67
2019-02-22T02:12:04.470Z,28.10
2019-02-22T02:14:33.123Z,28.70
2019-02-22T02:17:01.677Z,24.87
2019-02-22T02:19:30.257Z,27.27
2019-02-22T02:21:58.878Z,24.13
2019-02-22T02:24:27.461Z,25.83
2019-02-22T02:26:56.034Z,23.53
2019-02-22T02:29:24.631Z,24.17
2019-02-22T02:31:53.178Z,23.17
2019-02-22T02:34:21.762Z,24.30
2019-02-22T02:36:50.242Z,26.77
2019-02-22T02:39:18.834Z,26.90
2019-02-22T02:41:47.392Z,27.20
2019-02-22T02:44:15.978Z,25.70
2019-02-22T02:46:44.534Z,26.17
2019-02-22T02:49:13.087Z,23.27
2019-02-22T02:51:41.682Z,27.50
2019-02-22T02:54:10.239Z,29.57
2019-02-22T02:56:38.897Z,24.03
2019-02-22T02:59:07.459Z,25.70
2019-02-22T03:01:36.039Z,25.27
2019-02-22T03:04:04.585Z,24.13
2019-02-22T03:06:34.803Z,25.43
2019-02-22T03:09:03.815Z,27.50
2019-02-22T03:11:32.395Z,25.77
2019-02-22T03:14:00.951Z,26.40
2019-02-22T03:16:29.530Z,26.27
2019-02-22T03:18:58.096Z,31.77
2019-02-22T03:21:26.679Z,25.13
2019-02-22T03:23:55.239Z,34.03
2019-02-22T03:26:23.816Z,33.40
2019-02-22T03:28:52.386Z,33.20
2019-02-22T03:31:20.960Z,26.80
2019-02-22T03:33:49.525Z,31.63
2019-02-22T03:36:18.099Z,32.27
2019-02-22T03:38:46.664Z,23.87
2019-02-22T03:41:15.252Z,21.83
2019-02-22T03:43:43.820Z,25.40
2019-02-22T03:46:12.422Z,25.97
2019-02-22T03:48:41.304Z,23.03
2019-02-22T03:51:09.877Z,28.47
2019-02-22T03:53:40.070Z,24.87
2019-02-22T03:56:08.675Z,34.40
2019-02-22T03:58:37.273Z,24.60
2019-02-22T04:01:06.716Z,24.23
2019-02-22T04:03:35.268Z,26.90
2019-02-22T04:06:03.930Z,24.63
2019-02-22T04:08:32.478Z,24.30
2019-02-22T04:11:01.032Z,23.63
2019-02-22T04:13:29.606Z,22.53
2019-02-22T04:15:58.170Z,25.00
2019-02-22T04:18:26.763Z,24.47
2019-02-22T04:20:55.302Z,26.13
2019-02-22T04:23:23.882Z,28.90
2019-02-22T04:25:52.442Z,27.33
2019-02-22T04:28:22.733Z,28.63
2019-02-22T04:30:51.362Z,28.23
2019-02-22T04:33:19.963Z,32.37
2019-02-22T04:35:48.517Z,28.57
2019-02-22T04:38:17.095Z,34.73
2019-02-22T04:40:45.666Z,32.07
2019-02-22T04:43:14.254Z,28.50
2019-02-22T04:45:43.788Z,23.70
2019-02-22T04:48:12.366Z,28.83
2019-02-22T04:50:40.984Z,23.27
2019-02-22T04:53:09.533Z,26.83
2019-02-22T04:55:38.080Z,27.33
2019-02-22T04:58:06.661Z,31.43
2019-02-22T05:00:35.215Z,31.40
2019-02-22T05:03:03.870Z,24.37
2019-02-22T05:05:32.422Z,29.57
2019-02-22T05:08:01.001Z,32.27
2019-02-22T05:10:29.560Z,31.63
2019-02-22T05:12:58.140Z,29.97
2019-02-22T05:15:26.736Z,29.83
2019-02-22T05:17:55.318Z,27.90
2019-02-22T05:20:23.796Z,29.43
2019-02-22T05:23:03.311Z,27.37
2019-02-22T05:25:22.575Z,29.70
2019-02-22T05:27:51.155Z,29.67
2019-02-22T05:30:19.727Z,35.00
2019-02-22T05:32:48.314Z,33.83
2019-02-22T05:35:16.864Z,28.80
2019-02-22T05:37:45.448Z,29.33
2019-02-22T05:40:14.014Z,32.90
2019-02-22T05:42:42.587Z,30.20
2019-02-22T05:45:11.146Z,31.70
2019-02-22T05:47:39.697Z,26.70
2019-02-22T05:50:08.524Z,30.00
2019-02-22T05:52:37.138Z,28.33
2019-02-22T05:55:06.266Z,31.13
2019-02-22T05:57:34.820Z,31.93
2019-02-22T06:00:03.847Z,34.50
2019-02-22T06:02:33.964Z,40.03
2019-02-22T06:05:02.782Z,38.43
2019-02-22T06:07:31.336Z,35.70
2019-02-22T06:09:59.979Z,29.07
2019-02-22T06:12:34.577Z,27.00
2019-02-22T06:14:58.769Z,31.13
2019-02-22T06:17:27.335Z,26.23
2019-02-22T06:19:55.891Z,27.30
2019-02-22T06:22:29.678Z,29.93
2019-02-22T06:24:54.669Z,35.97
2019-02-22T06:27:23.147Z,30.87
2019-02-22T06:29:51.725Z,32.37
2019-02-22T06:32:20.283Z,28.27
2019-02-22T06:34:48.857Z,24.30
2019-02-22T06:37:17.406Z,27.93
2019-02-22T06:39:45.988Z,26.40
2019-02-22T06:42:14.535Z,29.50
2019-02-22T06:44:43.111Z,26.70
2019-02-22T06:47:11.662Z,29.70
2019-02-22T06:49:40.250Z,26.97
2019-02-22T06:52:08.814Z,28.90
2019-02-22T06:54:37.394Z,29.67
2019-02-22T06:57:05.954Z,38.10
2019-02-22T06:59:34.539Z,36.23
2019-02-22T07:02:03.091Z,31.47
2019-02-22T07:04:31.670Z,27.33
2019-02-22T07:07:00.230Z,30.27
2019-02-22T07:09:28.810Z,29.40
2019-02-22T07:12:07.663Z,30.00
2019-02-22T07:14:36.242Z,29.10
2019-02-22T07:17:04.793Z,35.27
2019-02-22T07:19:33.377Z,29.17
2019-02-22T07:22:01.925Z,27.27
2019-02-22T07:24:30.482Z,25.90
2019-02-22T07:26:59.067Z,28.13
2019-02-22T07:29:27.619Z,25.27
2019-02-22T07:32:05.484Z,26.13
2019-02-22T07:34:26.404Z,28.73
2019-02-22T07:36:54.970Z,31.37
2019-02-22T07:39:27.761Z,29.17
2019-02-22T07:41:53.674Z,25.67
2019-02-22T07:44:22.230Z,24.37
2019-02-22T07:46:50.822Z,24.87
2019-02-22T07:49:22.196Z,32.13
2019-02-22T07:51:50.779Z,26.87
2019-02-22T07:54:19.344Z,29.57
2019-02-22T07:56:47.929Z,32.80
2019-02-22T07:59:16.510Z,36.30
2019-02-22T08:01:47.885Z,36.73
2019-02-22T08:04:15.311Z,37.67
2019-02-22T08:06:43.887Z,44.80
2019-02-22T08:09:12.469Z,32.60
2019-02-22T08:11:41.049Z,26.90
2019-02-22T08:14:09.534Z,36.57
2019-02-22T08:16:39.352Z,53.33
2019-02-22T08:19:07.911Z,32.97
2019-02-22T08:21:36.488Z,26.43
2019-02-22T08:24:05.040Z,32.53
2019-02-22T08:26:33.613Z,43.07
2019-02-22T08:29:02.091Z,44.10
2019-02-22T08:31:30.670Z,37.93
2019-02-22T08:33:59.242Z,36.43
2019-02-22T08:36:27.840Z,39.70
2019-02-22T08:38:56.399Z,38.30
2019-02-22T08:41:24.980Z,39.10
2019-02-22T08:43:53.530Z,40.90
2019-02-22T08:46:22.108Z,37.20
2019-02-22T08:48:50.666Z,39.73
2019-02-22T08:51:19.308Z,47.77
2019-02-22T08:53:47.827Z,43.73
2019-02-22T08:56:16.420Z,40.23
2019-02-22T08:58:45.038Z,45.83
2019-02-22T09:01:13.615Z,48.93
2019-02-22T09:03:50.243Z,43.27
2019-02-22T09:06:12.363Z,46.60
2019-02-22T09:08:40.949Z,43.70
2019-02-22T09:11:09.502Z,46.23
2019-02-22T09:13:43.483Z,44.83
2019-02-22T09:16:08.275Z,43.83
2019-02-22T09:18:36.854Z,50.03
2019-02-22T09:21:05.410Z,42.90
2019-02-22T09:23:33.994Z,43.23
2019-02-22T09:26:02.551Z,35.40
2019-02-22T09:28:31.130Z,29.83
2019-02-22T09:30:59.685Z,25.00
2019-02-22T09:33:28.197Z,22.97
2019-02-22T09:35:56.759Z,18.67
2019-02-22T09:38:25.342Z,17.60
2019-02-22T09:40:53.905Z,17.17
2019-02-22T09:43:22.429Z,16.10
2019-02-22T09:45:50.977Z,16.43
2019-02-22T09:48:19.570Z,14.80
2019-02-22T09:50:48.282Z,13.53
2019-02-22T09:53:16.851Z,13.80
2019-02-22T09:55:45.412Z,13.07
2019-02-22T09:58:13.994Z,11.60
2019-02-22T10:00:42.551Z,12.33
2019-02-22T10:03:11.158Z,12.90
2019-02-22T10:05:39.702Z,12.03
2019-02-22T10:08:08.290Z,13.13
2019-02-22T10:10:36.845Z,12.67
2019-02-22T10:13:05.443Z,13.50
2019-02-22T10:15:34.008Z,11.93
2019-02-22T10:18:02.587Z,14.90
2019-02-22T10:20:31.142Z,12.07
2019-02-22T10:22:59.734Z,13.40
2019-02-22T10:25:28.294Z,13.60
2019-02-22T10:27:56.850Z,14.10
2019-02-22T10:30:25.363Z,13.57
2019-02-22T10:32:53.947Z,12.53
2019-02-22T10:35:22.529Z,12.90
2019-02-22T10:37:51.090Z,11.40
2019-02-22T10:40:19.677Z,11.60
2019-02-22T10:42:48.243Z,11.63
2019-02-22T10:45:16.829Z,9.93
2019-02-22T10:47:45.386Z,9.57
2019-02-22T10:50:14.026Z,9.53
2019-02-22T10:52:42.577Z,9.77
2019-02-22T10:55:13.103Z,10.07
2019-02-22T10:57:41.658Z,10.63
2019-02-22T11:00:16.007Z,9.77
2019-02-22T11:02:44.558Z,10.63
2019-02-22T11:05:13.147Z,11.00
2019-02-22T11:07:41.706Z,8.00
2019-02-22T11:10:12.024Z,7.80
2019-02-22T11:12:40.585Z,7.60
2019-02-22T11:15:11.602Z,10.27
2019-02-22T11:17:40.177Z,9.70
2019-02-22T11:20:10.281Z,8.33
2019-02-22T11:22:38.755Z,8.40
2019-02-22T11:25:12.873Z,8.73
2019-02-22T11:27:41.358Z,9.77
2019-02-22T11:30:14.142Z,7.33
2019-02-22T11:32:42.689Z,6.73
2019-02-22T11:35:11.328Z,6.60
2019-02-22T11:37:39.893Z,6.17
2019-02-22T11:40:10.093Z,7.27
2019-02-22T11:42:38.713Z,4.80
2019-02-22T11:45:08.418Z,4.70
2019-02-22T11:47:36.885Z,4.70
2019-02-22T11:50:08.395Z,3.70
2019-02-22T11:52:36.863Z,4.77
2019-02-22T11:55:09.114Z,4.57
2019-02-22T11:57:40.080Z,5.47
2019-02-22T12:00:16.022Z,5.20
2019-02-22T12:02:45.741Z,4.87
2019-02-22T12:05:15.697Z,4.47
2019-02-22T12:07:44.177Z,5.50
2019-02-22T12:10:13.578Z,6.00
2019-02-22T12:12:42.185Z,5.87
2019-02-22T12:15:12.196Z,5.57
2019-02-22T12:17:40.807Z,6.80
2019-02-22T12:20:10.333Z,5.90
2019-02-22T12:22:38.876Z,6.00
2019-02-22T12:25:13.593Z,7.77
2019-02-22T12:27:42.131Z,6.60
2019-02-22T12:30:15.164Z,8.57
2019-02-22T12:32:43.774Z,7.60
2019-02-22T12:35:12.432Z,7.10
2019-02-22T12:37:41.041Z,6.30
2019-02-22T12:40:10.924Z,5.40
2019-02-22T12:42:39.561Z,5.20
2019-02-22T12:45:10.049Z,5.40
2019-02-22T12:47:38.625Z,6.33
2019-02-22T12:50:09.409Z,6.57
2019-02-22T12:52:37.913Z,8.53
2019-02-22T12:55:09.521Z,6.43
2019-02-22T12:57:38.009Z,6.37
2019-02-22T13:00:09.558Z,5.97
2019-02-22T13:02:38.234Z,6.37
2019-02-22T13:05:09.375Z,5.63
2019-02-22T13:07:38.236Z,4.60
2019-02-22T13:10:07.714Z,5.17
2019-02-22T13:12:36.291Z,4.83
2019-02-22T13:15:14.121Z,4.83
2019-02-22T13:17:38.060Z,5.37
2019-02-22T13:20:08.341Z,4.70
2019-02-22T13:22:36.924Z,3.30
2019-02-22T13:25:10.591Z,3.87
2019-02-22T13:27:39.159Z,3.47
2019-02-22T13:30:10.715Z,3.90
2019-02-22T13:32:39.281Z,5.47
2019-02-22T13:35:10.723Z,3.97
2019-02-22T13:37:38.126Z,3.30
2019-02-22T13:40:14.943Z,2.60
2019-02-22T13:42:43.602Z,2.93
2019-02-22T13:45:13.128Z,3.57
2019-02-22T13:47:41.797Z,5.77
2019-02-22T13:50:13.077Z,2.70
2019-02-22T13:52:41.637Z,2.93
2019-02-22T13:55:10.358Z,3.60
2019-02-22T13:57:39.006Z,2.93
2019-02-22T14:00:11.431Z,2.53
2019-02-22T14:02:40.000Z,4.20
2019-02-22T14:05:08.552Z,2.17
2019-02-22T14:07:37.118Z,2.87
2019-02-22T14:10:06.202Z,2.67
2019-02-22T14:12:34.699Z,2.80
2019-02-22T14:15:03.318Z,2.83
2019-02-22T14:17:31.894Z,2.83
2019-02-22T14:20:00.440Z,2.87
2019-02-22T14:22:29.017Z,2.50
2019-02-22T14:24:57.611Z,3.47
2019-02-22T14:27:26.146Z,4.00
2019-02-22T14:29:54.762Z,3.87
2019-02-22T14:32:23.306Z,2.53
2019-02-22T14:34:51.881Z,2.87
2019-02-22T14:37:20.605Z,2.87
2019-02-22T14:40:00.106Z,2.27
2019-02-22T14:42:19.363Z,2.47
2019-02-22T14:44:47.867Z,2.93
2019-02-22T14:47:16.405Z,3.00
2019-02-22T14:49:44.989Z,1.93
2019-02-22T14:52:13.539Z,2.70
2019-02-22T14:54:42.106Z,2.10
2019-02-22T14:57:10.577Z,2.20
2019-02-22T14:59:39.158Z,3.20
2019-02-22T15:02:07.701Z,3.27
2019-02-22T15:04:36.433Z,2.20
2019-02-22T15:07:05.026Z,4.40
2019-02-22T15:09:33.596Z,4.03
2019-02-22T15:12:02.087Z,2.87
2019-02-22T15:14:30.661Z,2.70
2019-02-22T15:17:03.756Z,3.47
2019-02-22T15:19:32.334Z,3.17
2019-02-22T15:22:01.245Z,2.47
2019-02-22T15:24:29.842Z,1.80
2019-02-22T15:26:58.413Z,2.20
2019-02-22T15:29:26.980Z,3.07
2019-02-22T15:31:55.529Z,3.30
2019-02-22T15:34:24.106Z,2.60
2019-02-22T15:36:52.661Z,3.67
2019-02-22T15:39:21.243Z,2.50
2019-02-22T15:41:49.801Z,2.87
2019-02-22T15:44:18.388Z,3.83
2019-02-22T15:46:47.072Z,3.40
2019-02-22T15:49:15.726Z,4.23
2019-02-22T15:51:44.257Z,5.07
2019-02-22T15:54:12.811Z,2.47
2019-02-22T15:56:41.378Z,6.47
2019-02-22T15:59:09.922Z,4.60
2019-02-22T16:01:38.506Z,3.73
2019-02-22T16:04:14.638Z,4.53
2019-02-22T16:06:43.211Z,4.53
2019-02-22T16:09:11.829Z,5.57
2019-02-22T16:11:40.330Z,4.77
2019-02-22T16:14:08.881Z,5.50
2019-02-22T16:16:37.466Z,3.80
2019-02-22T16:19:06.080Z,3.00
2019-02-22T16:21:34.657Z,3.90
2019-02-22T16:24:03.131Z,4.07
2019-02-22T16:26:31.947Z,7.37
2019-02-22T16:29:00.491Z,4.27
2019-02-22T16:31:29.078Z,4.83
2019-02-22T16:33:59.461Z,5.07
2019-02-22T16:36:32.166Z,5.97
2019-02-22T16:39:03.984Z,4.50
2019-02-22T16:41:33.687Z,3.93
2019-02-22T16:44:04.538Z,5.67
2019-02-22T16:46:35.181Z,5.63
2019-02-22T16:49:03.853Z,4.73
2019-02-22T16:51:34.106Z,7.40
2019-02-22T16:54:05.533Z,5.90
2019-02-22T16:56:34.043Z,6.67
2019-02-22T16:59:02.674Z,6.67
2019-02-22T17:01:31.245Z,5.37
2019-02-22T17:03:59.857Z,6.13
2019-02-22T17:06:28.656Z,7.03
2019-02-22T17:08:57.440Z,5.33
2019-02-22T17:11:26.026Z,8.33
2019-02-22T17:13:54.650Z,9.50
2019-02-22T17:16:23.229Z,7.37
2019-02-22T17:18:51.776Z,5.40
2019-02-22T17:21:20.342Z,8.13
2019-02-22T17:23:48.828Z,5.90
2019-02-22T17:26:17.397Z,5.93
2019-02-22T17:28:45.981Z,5.90
2019-02-22T17:31:14.534Z,5.97
2019-02-22T17:33:43.124Z,7.20
2019-02-22T17:36:11.831Z,8.00
2019-02-22T17:38:40.406Z,7.60
2019-02-22T17:41:08.950Z,6.90
2019-02-22T17:43:37.526Z,6.40
2019-02-22T17:46:06.088Z,8.73
2019-02-22T17:48:34.745Z,6.40
2019-02-22T17:51:03.292Z,7.33
2019-02-22T17:53:31.877Z,6.30
2019-02-22T17:56:00.421Z,6.67
2019-02-22T17:58:28.999Z,8.03
2019-02-22T18:00:57.623Z,7.63
2019-02-22T18:03:26.201Z,8.33
2019-02-22T18:05:54.738Z,8.10
2019-02-22T18:08:23.324Z,9.17
2019-02-22T18:10:51.880Z,7.27
2019-02-22T18:13:20.462Z,8.47
2019-02-22T18:15:49.014Z,8.67
2019-02-22T18:18:17.594Z,6.53
2019-02-22T18:20:46.149Z,7.57
2019-02-22T18:23:14.740Z,6.07
2019-02-22T18:25:43.288Z,6.67
2019-02-22T18:28:11.863Z,6.60
2019-02-22T18:30:40.423Z,5.83
2019-02-22T18:33:08.990Z,5.50
2019-02-22T18:35:37.563Z,7.17
2019-02-22T18:38:06.398Z,6.77
2019-02-22T18:40:34.939Z,5.87
2019-02-22T18:43:03.523Z,6.57
2019-02-22T18:45:32.084Z,4.60
2019-02-22T18:48:00.662Z,6.67
2019-02-22T18:50:29.220Z,5.70
2019-02-22T18:52:57.802Z,5.83
2019-02-22T18:55:26.350Z,7.20
2019-02-22T18:57:54.953Z,5.70
2019-02-22T19:00:23.507Z,8.57
2019-02-22T19:02:52.043Z,7.83
2019-02-22T19:05:20.622Z,7.90
2019-02-22T19:07:49.173Z,11.07
2019-02-22T19:10:18.800Z,10.77
2019-02-22T19:12:47.352Z,8.10
2019-02-22T19:15:15.930Z,7.90
2019-02-22T19:17:44.483Z,7.83
2019-02-22T19:20:17.915Z,5.90
2019-02-22T19:22:46.476Z,5.23
2019-02-22T19:25:15.054Z,6.80
2019-02-22T19:27:43.603Z,7.17
2019-02-22T19:30:16.994Z,6.17
2019-02-22T19:32:45.547Z,7.30
2019-02-22T19:35:14.187Z,7.67
2019-02-22T19:37:42.799Z,7.67
2019-02-22T19:40:13.511Z,8.07
2019-02-22T19:42:42.057Z,8.03
2019-02-22T19:45:11.467Z,9.73
2019-02-22T19:47:42.246Z,9.80
2019-02-22T19:50:12.163Z,8.20
2019-02-22T19:52:40.844Z,7.87
2019-02-22T19:55:12.126Z,7.50
2019-02-22T19:57:40.687Z,10.00
2019-02-22T20:00:18.994Z,8.83
2019-02-22T20:02:47.610Z,9.40
2019-02-22T20:05:16.363Z,9.20
2019-02-22T20:07:44.973Z,9.73
2019-02-22T20:10:21.451Z,11.20
2019-02-22T20:12:50.087Z,11.80
2019-02-22T20:15:18.835Z,11.90
2019-02-22T20:17:53.721Z,9.27
2019-02-22T20:20:18.709Z,12.60
2019-02-22T20:22:47.338Z,13.33
2019-02-22T20:25:15.959Z,11.97
2019-02-22T20:27:44.524Z,9.63
2019-02-22T20:30:17.922Z,15.73
2019-02-22T20:32:46.499Z,11.77
2019-02-22T20:35:23.766Z,13.33
2019-02-22T20:37:53.453Z,12.40
2019-02-22T20:40:22.426Z,12.47
2019-02-22T20:42:51.077Z,12.17
2019-02-22T20:45:19.621Z,9.97
2019-02-22T20:47:48.213Z,12.33
2019-02-22T20:50:16.768Z,14.73
2019-02-22T20:52:45.349Z,13.73
2019-02-22T20:55:14.182Z,14.10
2019-02-22T20:57:42.758Z,14.43
2019-02-22T21:00:19.961Z,11.47
2019-02-22T21:02:48.613Z,12.87
2019-02-22T21:05:17.175Z,16.10
2019-02-22T21:07:45.752Z,18.17
2019-02-22T21:10:19.046Z,12.43
2019-02-22T21:12:47.703Z,13.87
2019-02-22T21:15:16.329Z,13.33
2019-02-22T21:17:44.971Z,11.40
2019-02-22T21:20:19.072Z,14.50
2019-02-22T21:22:47.719Z,14.53
2019-02-22T21:25:16.351Z,11.50
2019-02-22T21:27:44.930Z,11.97
2019-02-22T21:30:17.703Z,10.73
2019-02-22T21:32:46.254Z,13.07
2019-02-22T21:35:14.820Z,12.40
2019-02-22T21:37:44.131Z,12.93
2019-02-22T21:40:13.311Z,13.23
2019-02-22T21:42:41.886Z,12.47
2019-02-22T21:45:16.778Z,12.03
2019-02-22T21:47:54.171Z,11.27
2019-02-22T21:50:17.251Z,9.83
2019-02-22T21:52:45.831Z,11.00
2019-02-22T21:55:15.323Z,12.13
2019-02-22T21:57:44.013Z,10.80
2019-02-22T22:00:23.437Z,11.77
2019-02-22T22:02:51.968Z,13.03
2019-02-22T22:05:20.557Z,13.70
2019-02-22T22:07:49.103Z,13.10
2019-02-22T22:10:17.757Z,13.27
2019-02-22T22:12:46.308Z,13.67
2019-02-22T22:15:16.411Z,14.43
2019-02-22T22:17:44.962Z,12.43
2019-02-22T22:20:13.682Z,13.70
2019-02-22T22:22:42.234Z,16.83
2019-02-22T22:25:14.848Z,16.30
2019-02-22T22:27:43.464Z,19.03
2019-02-22T22:30:15.947Z,12.83
2019-02-22T22:32:44.514Z,13.10
2019-02-22T22:35:14.480Z,14.50
2019-02-22T22:37:43.059Z,13.77
2019-02-22T22:40:11.799Z,14.23
2019-02-22T22:42:40.768Z,13.70
2019-02-22T22:45:16.896Z,12.03
2019-02-22T22:47:45.478Z,14.97
2019-02-22T22:50:15.891Z,14.37
2019-02-22T22:52:44.477Z,17.90
2019-02-22T22:55:13.207Z,21.57
2019-02-22T22:57:42.987Z,20.53
2019-02-22T23:00:35.790Z,21.17
2019-02-22T23:03:04.761Z,16.30
2019-02-22T23:05:33.769Z,14.17
2019-02-22T23:08:02.378Z,13.97
2019-02-22T23:10:31.187Z,14.47
2019-02-22T23:12:59.812Z,13.20
2019-02-22T23:15:28.446Z,13.17
2019-02-22T23:17:57.116Z,15.20
2019-02-22T23:20:25.838Z,15.40
2019-02-22T23:22:54.556Z,18.73
2019-02-22T23:25:23.180Z,18.33
2019-02-22T23:27:51.786Z,17.57
2019-02-22T23:30:20.578Z,20.60
2019-02-22T23:32:49.166Z,21.20
2019-02-22T23:35:17.845Z,22.63
2019-02-22T23:37:46.442Z,21.70
2019-02-22T23:40:15.057Z,23.27
2019-02-22T23:42:43.653Z,21.00
2019-02-22T23:45:12.418Z,28.37
2019-02-22T23:47:40.993Z,26.87
2019-02-22T23:50:09.621Z,24.87
2019-02-22T23:52:38.262Z,21.83
2019-02-22T23:55:07.012Z,20.23
2019-02-22T23:57:35.602Z,20.87
